sensor_id;sensor_type;location;lat;lon;timestamp;temperature;humidity
19060;DHT22;9663;48.996;8.334;2023-05-15T00:01:36;15.40;48.60
19060;DHT22;9663;48.996;8.334;2023-05-15T00:04:02;15.30;48.60
19060;DHT22;9663;48.996;8.334;2023-05-15T00:06:28;15.30;48.70
19060;DHT22;9663;48.996;8.334;2023-05-15T00:08:54;17.20;49.80
19060;DHT22;9663;48.996;8.334;2023-05-15T00:11:19;14.80;48.70
19060;DHT22;9663;48.996;8.334;2023-05-15T00:13:48;15.30;49.00
19060;DHT22;9663;48.996;8.334;2023-05-15T00:16:14;14.20;48.50
19060;DHT22;9663;48.996;8.334;2023-05-15T00:18:40;15.20;49.10
19060;DHT22;9663;48.996;8.334;2023-05-15T00:21:05;14.80;49.00
19060;DHT22;9663;48.996;8.334;2023-05-15T00:23:31;15.20;49.20
19060;DHT22;9663;48.996;8.334;2023-05-15T00:25:57;15.30;49.20
19060;DHT22;9663;48.996;8.334;2023-05-15T00:28:23;15.10;49.20
19060;DHT22;9663;48.996;8.334;2023-05-15T00:30:49;15.20;49.50
19060;DHT22;9663;48.996;8.334;2023-05-15T00:33:16;15.00;49.20
19060;DHT22;9663;48.996;8.334;2023-05-15T00:35:41;15.10;49.40
19060;DHT22;9663;48.996;8.334;2023-05-15T00:38:07;15.10;49.50
19060;DHT22;9663;48.996;8.334;2023-05-15T00:40:33;15.10;49.60
19060;DHT22;9663;48.996;8.334;2023-05-15T00:43:01;15.00;49.60
19060;DHT22;9663;48.996;8.334;2023-05-15T00:45:27;15.10;49.70
19060;DHT22;9663;48.996;8.334;2023-05-15T00:47:55;15.00;49.80
19060;DHT22;9663;48.996;8.334;2023-05-15T00:50:22;14.90;49.70
19060;DHT22;9663;48.996;8.334;2023-05-15T00:52:49;14.00;49.50
19060;DHT22;9663;48.996;8.334;2023-05-15T00:55:15;15.00;50.00
19060;DHT22;9663;48.996;8.334;2023-05-15T00:57:42;14.90;50.10
19060;DHT22;9663;48.996;8.334;2023-05-15T01:00:09;14.80;50.30
19060;DHT22;9663;48.996;8.334;2023-05-15T01:02:36;14.90;50.30
19060;DHT22;9663;48.996;8.334;2023-05-15T01:05:03;14.00;50.00
19060;DHT22;9663;48.996;8.334;2023-05-15T01:07:34;14.80;50.40
19060;DHT22;9663;48.996;8.334;2023-05-15T01:10:07;14.90;50.70
19060;DHT22;9663;48.996;8.334;2023-05-15T01:12:34;14.80;50.60
19060;DHT22;9663;48.996;8.334;2023-05-15T01:15:02;14.70;50.60
19060;DHT22;9663;48.996;8.334;2023-05-15T01:17:28;14.90;50.70
19060;DHT22;9663;48.996;8.334;2023-05-15T01:19:55;15.50;51.10
19060;DHT22;9663;48.996;8.334;2023-05-15T01:28:29;14.80;51.80
19060;DHT22;9663;48.996;8.334;2023-05-15T01:31:14;13.90;50.90
19060;DHT22;9663;48.996;8.334;2023-05-15T01:33:45;14.90;51.20
19060;DHT22;9663;48.996;8.334;2023-05-15T01:36:25;14.90;51.00
19060;DHT22;9663;48.996;8.334;2023-05-15T01:39:06;14.90;51.60
19060;DHT22;9663;48.996;8.334;2023-05-15T01:41:44;15.00;51.00
19060;DHT22;9663;48.996;8.334;2023-05-15T01:44:21;15.10;50.90
19060;DHT22;9663;48.996;8.334;2023-05-15T01:46:57;15.00;51.00
19060;DHT22;9663;48.996;8.334;2023-05-15T01:49:26;15.10;51.20
19060;DHT22;9663;48.996;8.334;2023-05-15T01:51:58;15.00;51.10
19060;DHT22;9663;48.996;8.334;2023-05-15T01:54:30;14.90;51.40
19060;DHT22;9663;48.996;8.334;2023-05-15T01:56:58;14.90;51.10
19060;DHT22;9663;48.996;8.334;2023-05-15T01:59:24;14.90;51.10
19060;DHT22;9663;48.996;8.334;2023-05-15T02:01:51;14.80;51.20
19060;DHT22;9663;48.996;8.334;2023-05-15T02:04:18;14.90;51.30
19060;DHT22;9663;48.996;8.334;2023-05-15T02:06:45;13.90;51.00
19060;DHT22;9663;48.996;8.334;2023-05-15T02:09:12;14.90;51.50
19060;DHT22;9663;48.996;8.334;2023-05-15T02:11:39;14.80;51.60
19060;DHT22;9663;48.996;8.334;2023-05-15T02:14:06;14.80;51.50
19060;DHT22;9663;48.996;8.334;2023-05-15T02:16:34;14.90;51.60
19060;DHT22;9663;48.996;8.334;2023-05-15T02:19:00;15.30;51.80
19060;DHT22;9663;48.996;8.334;2023-05-15T02:21:25;14.80;51.60
19060;DHT22;9663;48.996;8.334;2023-05-15T02:23:51;14.60;51.60
19060;DHT22;9663;48.996;8.334;2023-05-15T02:32:53;14.60;53.00
19060;DHT22;9663;48.996;8.334;2023-05-15T02:35:41;14.50;52.50
19060;DHT22;9663;48.996;8.334;2023-05-15T02:38:15;14.50;52.50
19060;DHT22;9663;48.996;8.334;2023-05-15T02:40:44;14.40;52.20
19060;DHT22;9663;48.996;8.334;2023-05-15T02:43:12;14.50;52.20
19060;DHT22;9663;48.996;8.334;2023-05-15T02:45:41;14.40;52.20
19060;DHT22;9663;48.996;8.334;2023-05-15T02:48:11;13.40;51.80
19060;DHT22;9663;48.996;8.334;2023-05-15T02:50:38;13.30;51.80
19060;DHT22;9663;48.996;8.334;2023-05-15T02:53:04;14.40;52.50
19060;DHT22;9663;48.996;8.334;2023-05-15T02:55:36;14.30;52.50
19060;DHT22;9663;48.996;8.334;2023-05-15T02:58:02;14.40;52.50
19060;DHT22;9663;48.996;8.334;2023-05-15T03:00:29;14.50;52.70
19060;DHT22;9663;48.996;8.334;2023-05-15T03:02:54;14.40;52.70
19060;DHT22;9663;48.996;8.334;2023-05-15T03:05:20;13.10;52.10
19060;DHT22;9663;48.996;8.334;2023-05-15T03:07:46;15.00;53.10
19060;DHT22;9663;48.996;8.334;2023-05-15T03:10:11;14.30;52.70
19060;DHT22;9663;48.996;8.334;2023-05-15T03:12:37;14.30;52.70
19060;DHT22;9663;48.996;8.334;2023-05-15T03:15:05;14.20;52.80
19060;DHT22;9663;48.996;8.334;2023-05-15T03:17:31;14.30;52.90
19060;DHT22;9663;48.996;8.334;2023-05-15T03:19:57;14.10;52.80
19060;DHT22;9663;48.996;8.334;2023-05-15T03:22:22;15.30;53.50
19060;DHT22;9663;48.996;8.334;2023-05-15T03:24:48;14.20;53.00
19060;DHT22;9663;48.996;8.334;2023-05-15T03:27:14;14.10;53.10
19060;DHT22;9663;48.996;8.334;2023-05-15T03:29:40;14.10;53.10
19060;DHT22;9663;48.996;8.334;2023-05-15T03:32:06;14.10;53.20
19060;DHT22;9663;48.996;8.334;2023-05-15T03:34:32;13.90;53.10
19060;DHT22;9663;48.996;8.334;2023-05-15T03:36:58;14.10;53.30
19060;DHT22;9663;48.996;8.334;2023-05-15T03:39:24;14.10;53.30
19060;DHT22;9663;48.996;8.334;2023-05-15T03:41:49;12.80;52.80
19060;DHT22;9663;48.996;8.334;2023-05-15T03:44:15;14.10;53.50
19060;DHT22;9663;48.996;8.334;2023-05-15T03:46:40;14.10;53.50
19060;DHT22;9663;48.996;8.334;2023-05-15T03:49:07;14.10;53.60
19060;DHT22;9663;48.996;8.334;2023-05-15T03:51:33;14.10;53.70
19060;DHT22;9663;48.996;8.334;2023-05-15T03:53:59;14.10;53.70
19060;DHT22;9663;48.996;8.334;2023-05-15T03:56:25;14.10;53.70
19060;DHT22;9663;48.996;8.334;2023-05-15T03:58:51;13.60;53.50
19060;DHT22;9663;48.996;8.334;2023-05-15T04:01:17;14.20;54.40
19060;DHT22;9663;48.996;8.334;2023-05-15T04:03:43;13.70;53.50
19060;DHT22;9663;48.996;8.334;2023-05-15T04:06:08;14.20;53.80
19060;DHT22;9663;48.996;8.334;2023-05-15T04:08:34;14.20;53.90
19060;DHT22;9663;48.996;8.334;2023-05-15T04:10:59;14.20;53.90
19060;DHT22;9663;48.996;8.334;2023-05-15T04:13:25;13.50;53.60
19060;DHT22;9663;48.996;8.334;2023-05-15T04:15:51;14.70;54.30
19060;DHT22;9663;48.996;8.334;2023-05-15T04:18:18;15.10;54.50
19060;DHT22;9663;48.996;8.334;2023-05-15T04:20:44;14.20;54.10
19060;DHT22;9663;48.996;8.334;2023-05-15T04:23:09;14.20;54.20
19060;DHT22;9663;48.996;8.334;2023-05-15T04:25:35;14.20;54.20
19060;DHT22;9663;48.996;8.334;2023-05-15T04:28:00;14.30;54.30
19060;DHT22;9663;48.996;8.334;2023-05-15T04:30:26;14.30;54.30
19060;DHT22;9663;48.996;8.334;2023-05-15T04:32:52;13.80;54.10
19060;DHT22;9663;48.996;8.334;2023-05-15T04:35:17;14.50;54.40
19060;DHT22;9663;48.996;8.334;2023-05-15T04:37:43;14.20;54.20
19060;DHT22;9663;48.996;8.334;2023-05-15T04:40:12;14.30;54.20
19060;DHT22;9663;48.996;8.334;2023-05-15T04:42:40;14.30;54.30
19060;DHT22;9663;48.996;8.334;2023-05-15T04:45:07;14.30;54.30
19060;DHT22;9663;48.996;8.334;2023-05-15T04:47:33;14.20;54.40
19060;DHT22;9663;48.996;8.334;2023-05-15T04:49:59;14.20;55.10
19060;DHT22;9663;48.996;8.334;2023-05-15T04:52:25;14.20;54.50
19060;DHT22;9663;48.996;8.334;2023-05-15T04:54:51;14.20;54.50
19060;DHT22;9663;48.996;8.334;2023-05-15T04:57:17;14.20;54.60
19060;DHT22;9663;48.996;8.334;2023-05-15T04:59:43;14.20;54.60
19060;DHT22;9663;48.996;8.334;2023-05-15T05:02:09;14.20;54.70
19060;DHT22;9663;48.996;8.334;2023-05-15T05:04:35;14.30;54.80
19060;DHT22;9663;48.996;8.334;2023-05-15T05:07:01;14.30;54.80
19060;DHT22;9663;48.996;8.334;2023-05-15T05:09:30;14.60;55.00
19060;DHT22;9663;48.996;8.334;2023-05-15T05:11:58;14.30;54.80
19060;DHT22;9663;48.996;8.334;2023-05-15T05:14:25;14.40;55.70
19060;DHT22;9663;48.996;8.334;2023-05-15T05:16:51;14.40;55.00
19060;DHT22;9663;48.996;8.334;2023-05-15T05:19:16;14.40;55.60
19060;DHT22;9663;48.996;8.334;2023-05-15T05:21:42;13.20;54.40
19060;DHT22;9663;48.996;8.334;2023-05-15T05:24:08;14.60;55.10
19060;DHT22;9663;48.996;8.334;2023-05-15T05:26:33;14.60;55.00
19060;DHT22;9663;48.996;8.334;2023-05-15T05:28:59;15.80;55.60
19060;DHT22;9663;48.996;8.334;2023-05-15T05:31:25;14.80;55.10
19060;DHT22;9663;48.996;8.334;2023-05-15T05:33:51;14.70;55.10
19060;DHT22;9663;48.996;8.334;2023-05-15T05:36:17;14.90;55.20
19060;DHT22;9663;48.996;8.334;2023-05-15T05:38:43;15.80;55.60
19060;DHT22;9663;48.996;8.334;2023-05-15T05:41:08;15.00;55.20
19060;DHT22;9663;48.996;8.334;2023-05-15T05:43:34;15.20;55.50
19060;DHT22;9663;48.996;8.334;2023-05-15T05:46:01;14.80;55.10
19060;DHT22;9663;48.996;8.334;2023-05-15T05:48:27;15.50;55.40
19060;DHT22;9663;48.996;8.334;2023-05-15T05:50:53;15.70;55.50
19060;DHT22;9663;48.996;8.334;2023-05-15T05:53:19;15.50;55.30
19060;DHT22;9663;48.996;8.334;2023-05-15T05:55:46;15.90;55.30
19060;DHT22;9663;48.996;8.334;2023-05-15T05:58:12;16.00;55.20
19060;DHT22;9663;48.996;8.334;2023-05-15T06:00:37;16.30;55.20
19060;DHT22;9663;48.996;8.334;2023-05-15T06:03:03;16.40;55.00
19060;DHT22;9663;48.996;8.334;2023-05-15T06:05:29;16.90;55.00
19060;DHT22;9663;48.996;8.334;2023-05-15T06:07:55;16.60;54.70
19060;DHT22;9663;48.996;8.334;2023-05-15T06:10:22;16.50;54.70
19060;DHT22;9663;48.996;8.334;2023-05-15T06:12:48;16.60;54.50
19060;DHT22;9663;48.996;8.334;2023-05-15T06:15:14;17.20;54.70
19060;DHT22;9663;48.996;8.334;2023-05-15T06:17:40;16.70;54.60
19060;DHT22;9663;48.996;8.334;2023-05-15T06:20:06;16.80;54.50
19060;DHT22;9663;48.996;8.334;2023-05-15T06:22:33;16.90;54.50
19060;DHT22;9663;48.996;8.334;2023-05-15T06:25:04;17.30;54.70
19060;DHT22;9663;48.996;8.334;2023-05-15T06:27:31;17.00;54.40
19060;DHT22;9663;48.996;8.334;2023-05-15T06:29:57;17.20;54.50
19060;DHT22;9663;48.996;8.334;2023-05-15T06:32:23;17.30;54.40
19060;DHT22;9663;48.996;8.334;2023-05-15T06:34:48;17.40;54.20
19060;DHT22;9663;48.996;8.334;2023-05-15T06:37:14;17.40;54.00
19060;DHT22;9663;48.996;8.334;2023-05-15T06:39:40;17.50;53.90
19060;DHT22;9663;48.996;8.334;2023-05-15T06:42:06;17.50;54.00
19060;DHT22;9663;48.996;8.334;2023-05-15T06:44:32;17.40;54.00
19060;DHT22;9663;48.996;8.334;2023-05-15T06:46:58;15.90;53.10
19060;DHT22;9663;48.996;8.334;2023-05-15T06:49:24;17.50;53.80
19060;DHT22;9663;48.996;8.334;2023-05-15T06:51:50;17.50;53.80
19060;DHT22;9663;48.996;8.334;2023-05-15T06:54:16;18.80;54.60
19060;DHT22;9663;48.996;8.334;2023-05-15T06:56:42;17.10;53.80
19060;DHT22;9663;48.996;8.334;2023-05-15T06:59:08;17.40;53.90
19060;DHT22;9663;48.996;8.334;2023-05-15T07:01:34;17.50;54.00
19060;DHT22;9663;48.996;8.334;2023-05-15T07:04:00;17.50;53.90
19060;DHT22;9663;48.996;8.334;2023-05-15T07:06:26;17.50;54.20
19060;DHT22;9663;48.996;8.334;2023-05-15T07:08:52;17.60;54.30
19060;DHT22;9663;48.996;8.334;2023-05-15T07:11:18;17.80;54.50
19060;DHT22;9663;48.996;8.334;2023-05-15T07:13:44;17.80;54.40
19060;DHT22;9663;48.996;8.334;2023-05-15T07:16:09;18.60;54.60
19060;DHT22;9663;48.996;8.334;2023-05-15T07:18:35;18.20;54.00
19060;DHT22;9663;48.996;8.334;2023-05-15T07:21:01;18.80;53.90
19060;DHT22;9663;48.996;8.334;2023-05-15T07:23:27;19.20;53.90
19060;DHT22;9663;48.996;8.334;2023-05-15T07:25:55;18.40;53.50
19060;DHT22;9663;48.996;8.334;2023-05-15T07:28:21;18.30;53.60
19060;DHT22;9663;48.996;8.334;2023-05-15T07:30:47;17.60;53.20
19060;DHT22;9663;48.996;8.334;2023-05-15T07:33:13;17.10;53.70
19060;DHT22;9663;48.996;8.334;2023-05-15T07:35:38;18.40;53.60
19060;DHT22;9663;48.996;8.334;2023-05-15T07:38:04;18.40;53.60
19060;DHT22;9663;48.996;8.334;2023-05-15T07:40:30;18.40;53.50
19060;DHT22;9663;48.996;8.334;2023-05-15T07:42:55;18.40;54.90
19060;DHT22;9663;48.996;8.334;2023-05-15T07:45:21;18.50;54.10
19060;DHT22;9663;48.996;8.334;2023-05-15T07:47:48;17.50;53.60
19060;DHT22;9663;48.996;8.334;2023-05-15T07:50:14;17.90;53.90
19060;DHT22;9663;48.996;8.334;2023-05-15T07:52:40;18.90;54.10
19060;DHT22;9663;48.996;8.334;2023-05-15T07:55:08;19.00;53.90
19060;DHT22;9663;48.996;8.334;2023-05-15T07:57:35;19.10;53.80
19060;DHT22;9663;48.996;8.334;2023-05-15T08:00:01;19.30;53.70
19060;DHT22;9663;48.996;8.334;2023-05-15T08:02:34;19.40;54.30
19060;DHT22;9663;48.996;8.334;2023-05-15T08:05:01;19.50;53.30
19060;DHT22;9663;48.996;8.334;2023-05-15T08:07:29;19.60;53.30
19060;DHT22;9663;48.996;8.334;2023-05-15T08:09:56;21.00;54.00
19060;DHT22;9663;48.996;8.334;2023-05-15T08:12:22;20.00;53.50
19060;DHT22;9663;48.996;8.334;2023-05-15T08:14:53;19.90;53.20
19060;DHT22;9663;48.996;8.334;2023-05-15T08:17:19;19.40;52.60
19060;DHT22;9663;48.996;8.334;2023-05-15T08:19:46;20.30;52.80
19060;DHT22;9663;48.996;8.334;2023-05-15T08:22:12;19.70;52.30
19060;DHT22;9663;48.996;8.334;2023-05-15T08:24:39;20.60;52.40
19060;DHT22;9663;48.996;8.334;2023-05-15T08:27:05;20.70;52.10
19060;DHT22;9663;48.996;8.334;2023-05-15T08:29:32;20.70;51.80
19060;DHT22;9663;48.996;8.334;2023-05-15T08:31:59;21.00;51.70
19060;DHT22;9663;48.996;8.334;2023-05-15T08:34:25;20.60;51.50
19060;DHT22;9663;48.996;8.334;2023-05-15T08:36:51;20.80;51.70
19060;DHT22;9663;48.996;8.334;2023-05-15T08:39:17;20.90;51.80
19060;DHT22;9663;48.996;8.334;2023-05-15T08:41:55;20.70;51.60
19060;DHT22;9663;48.996;8.334;2023-05-15T08:44:29;20.80;51.60
19060;DHT22;9663;48.996;8.334;2023-05-15T08:46:56;20.90;51.60
19060;DHT22;9663;48.996;8.334;2023-05-15T08:52:28;20.80;51.10
19060;DHT22;9663;48.996;8.334;2023-05-15T08:54:54;21.00;51.20
19060;DHT22;9663;48.996;8.334;2023-05-15T08:57:20;20.90;51.30
19060;DHT22;9663;48.996;8.334;2023-05-15T08:59:47;21.10;51.60
19060;DHT22;9663;48.996;8.334;2023-05-15T09:02:14;21.20;51.80
19060;DHT22;9663;48.996;8.334;2023-05-15T09:04:41;21.30;51.90
19060;DHT22;9663;48.996;8.334;2023-05-15T09:07:06;21.40;51.60
19060;DHT22;9663;48.996;8.334;2023-05-15T09:09:34;21.60;51.50
19060;DHT22;9663;48.996;8.334;2023-05-15T09:12:01;21.80;51.10
19060;DHT22;9663;48.996;8.334;2023-05-15T09:14:28;22.00;51.20
19060;DHT22;9663;48.996;8.334;2023-05-15T09:16:54;22.00;50.80
19060;DHT22;9663;48.996;8.334;2023-05-15T09:19:20;23.40;51.10
19060;DHT22;9663;48.996;8.334;2023-05-15T09:21:46;21.20;49.90
19060;DHT22;9663;48.996;8.334;2023-05-15T09:24:19;22.40;50.10
19060;DHT22;9663;48.996;8.334;2023-05-15T09:27:06;21.90;49.50
19060;DHT22;9663;48.996;8.334;2023-05-15T09:29:35;21.70;48.90
19060;DHT22;9663;48.996;8.334;2023-05-15T09:32:07;22.80;49.60
19060;DHT22;9663;48.996;8.334;2023-05-15T09:34:36;21.60;49.10
19060;DHT22;9663;48.996;8.334;2023-05-15T09:37:06;23.10;49.40
19060;DHT22;9663;48.996;8.334;2023-05-15T09:39:39;23.30;49.50
19060;DHT22;9663;48.996;8.334;2023-05-15T09:42:10;24.20;49.70
19060;DHT22;9663;48.996;8.334;2023-05-15T09:44:42;23.10;49.10
19060;DHT22;9663;48.996;8.334;2023-05-15T09:47:12;23.10;48.70
19060;DHT22;9663;48.996;8.334;2023-05-15T09:49:42;23.80;49.30
19060;DHT22;9663;48.996;8.334;2023-05-15T09:52:08;23.00;48.30
19060;DHT22;9663;48.996;8.334;2023-05-15T09:54:35;23.00;48.20
19060;DHT22;9663;48.996;8.334;2023-05-15T09:57:10;23.00;48.30
19060;DHT22;9663;48.996;8.334;2023-05-15T09:59:45;22.90;48.10
19060;DHT22;9663;48.996;8.334;2023-05-15T10:02:23;23.20;48.30
19060;DHT22;9663;48.996;8.334;2023-05-15T10:04:57;23.10;48.60
19060;DHT22;9663;48.996;8.334;2023-05-15T10:07:34;23.20;48.70
19060;DHT22;9663;48.996;8.334;2023-05-15T10:10:02;23.50;48.20
19060;DHT22;9663;48.996;8.334;2023-05-15T10:12:30;24.40;48.60
19060;DHT22;9663;48.996;8.334;2023-05-15T10:14:57;23.10;47.80
19060;DHT22;9663;48.996;8.334;2023-05-15T10:17:27;23.60;48.30
19060;DHT22;9663;48.996;8.334;2023-05-15T10:19:58;23.80;48.00
19060;DHT22;9663;48.996;8.334;2023-05-15T10:22:29;24.20;48.40
19060;DHT22;9663;48.996;8.334;2023-05-15T10:25:14;24.30;48.00
19060;DHT22;9663;48.996;8.334;2023-05-15T10:27:41;24.60;47.20
19060;DHT22;9663;48.996;8.334;2023-05-15T10:30:09;24.70;47.00
19060;DHT22;9663;48.996;8.334;2023-05-15T10:32:36;24.80;46.20
19060;DHT22;9663;48.996;8.334;2023-05-15T10:35:08;24.20;45.80
19060;DHT22;9663;48.996;8.334;2023-05-15T10:37:34;24.90;46.40
19060;DHT22;9663;48.996;8.334;2023-05-15T10:40:03;25.00;46.60
19060;DHT22;9663;48.996;8.334;2023-05-15T10:42:35;25.10;46.50
19060;DHT22;9663;48.996;8.334;2023-05-15T10:45:06;25.30;46.50
19060;DHT22;9663;48.996;8.334;2023-05-15T10:47:34;27.20;47.10
19060;DHT22;9663;48.996;8.334;2023-05-15T10:50:03;25.60;45.60
19060;DHT22;9663;48.996;8.334;2023-05-15T10:52:35;25.60;45.50
19060;DHT22;9663;48.996;8.334;2023-05-15T10:55:01;25.50;45.30
19060;DHT22;9663;48.996;8.334;2023-05-15T10:57:30;25.50;45.30
19060;DHT22;9663;48.996;8.334;2023-05-15T10:59:56;25.60;44.40
19060;DHT22;9663;48.996;8.334;2023-05-15T11:02:26;25.40;43.50
19060;DHT22;9663;48.996;8.334;2023-05-15T11:04:59;25.20;43.10
19060;DHT22;9663;48.996;8.334;2023-05-15T11:07:26;25.00;43.10
19060;DHT22;9663;48.996;8.334;2023-05-15T11:09:53;24.50;42.90
19060;DHT22;9663;48.996;8.334;2023-05-15T11:12:20;24.20;42.90
19060;DHT22;9663;48.996;8.334;2023-05-15T11:17:25;23.60;42.90
19060;DHT22;9663;48.996;8.334;2023-05-15T11:22:33;22.80;43.80
19060;DHT22;9663;48.996;8.334;2023-05-15T11:25:10;22.40;44.00
19060;DHT22;9663;48.996;8.334;2023-05-15T11:27:41;22.10;44.70
19060;DHT22;9663;48.996;8.334;2023-05-15T11:30:19;21.90;45.10
19060;DHT22;9663;48.996;8.334;2023-05-15T11:32:57;21.70;45.30
19060;DHT22;9663;48.996;8.334;2023-05-15T11:35:43;21.70;45.50
19060;DHT22;9663;48.996;8.334;2023-05-15T11:38:17;22.00;45.80
19060;DHT22;9663;48.996;8.334;2023-05-15T11:40:58;21.40;45.80
19060;DHT22;9663;48.996;8.334;2023-05-15T11:43:32;21.30;46.20
19060;DHT22;9663;48.996;8.334;2023-05-15T11:48:38;21.20;46.70
19060;DHT22;9663;48.996;8.334;2023-05-15T11:51:18;21.30;46.80
19060;DHT22;9663;48.996;8.334;2023-05-15T11:53:47;20.10;46.10
19060;DHT22;9663;48.996;8.334;2023-05-15T11:56:24;21.10;46.70
19060;DHT22;9663;48.996;8.334;2023-05-15T11:58:57;20.00;46.10
19060;DHT22;9663;48.996;8.334;2023-05-15T12:01:24;21.30;47.10
19060;DHT22;9663;48.996;8.334;2023-05-15T12:03:50;22.60;48.00
19060;DHT22;9663;48.996;8.334;2023-05-15T12:06:18;21.30;47.70
19060;DHT22;9663;48.996;8.334;2023-05-15T12:08:49;21.60;48.10
19060;DHT22;9663;48.996;8.334;2023-05-15T12:11:23;20.90;48.30
19060;DHT22;9663;48.996;8.334;2023-05-15T12:13:53;21.90;49.40
19060;DHT22;9663;48.996;8.334;2023-05-15T12:16:25;21.90;49.30
19060;DHT22;9663;48.996;8.334;2023-05-15T12:18:51;23.10;49.40
19060;DHT22;9663;48.996;8.334;2023-05-15T12:21:17;23.40;49.20
19060;DHT22;9663;48.996;8.334;2023-05-15T12:23:50;24.10;48.80
19060;DHT22;9663;48.996;8.334;2023-05-15T12:26:18;24.80;47.70
19060;DHT22;9663;48.996;8.334;2023-05-15T12:28:46;25.00;47.70
19060;DHT22;9663;48.996;8.334;2023-05-15T12:31:13;26.30;47.70
19060;DHT22;9663;48.996;8.334;2023-05-15T12:33:39;27.20;47.70
19060;DHT22;9663;48.996;8.334;2023-05-15T12:36:05;28.20;46.70
19060;DHT22;9663;48.996;8.334;2023-05-15T12:38:32;28.80;45.80
19060;DHT22;9663;48.996;8.334;2023-05-15T12:40:59;29.60;45.10
19060;DHT22;9663;48.996;8.334;2023-05-15T12:43:25;30.70;44.60
19060;DHT22;9663;48.996;8.334;2023-05-15T12:45:55;30.70;43.80
19060;DHT22;9663;48.996;8.334;2023-05-15T12:48:21;31.40;42.80
19060;DHT22;9663;48.996;8.334;2023-05-15T12:50:47;31.90;42.60
19060;DHT22;9663;48.996;8.334;2023-05-15T12:53:14;32.50;42.10
19060;DHT22;9663;48.996;8.334;2023-05-15T12:55:43;32.80;39.80
19060;DHT22;9663;48.996;8.334;2023-05-15T12:58:11;33.30;40.30
19060;DHT22;9663;48.996;8.334;2023-05-15T13:00:42;33.80;40.10
19060;DHT22;9663;48.996;8.334;2023-05-15T13:03:13;33.70;38.50
19060;DHT22;9663;48.996;8.334;2023-05-15T13:05:42;34.20;38.30
19060;DHT22;9663;48.996;8.334;2023-05-15T13:08:14;34.90;37.80
19060;DHT22;9663;48.996;8.334;2023-05-15T13:10:42;35.00;37.30
19060;DHT22;9663;48.996;8.334;2023-05-15T13:13:07;35.10;37.40
19060;DHT22;9663;48.996;8.334;2023-05-15T13:15:34;34.90;36.60
19060;DHT22;9663;48.996;8.334;2023-05-15T13:20:40;35.40;36.00
19060;DHT22;9663;48.996;8.334;2023-05-15T13:23:16;35.40;35.80
19060;DHT22;9663;48.996;8.334;2023-05-15T13:25:44;35.70;35.70
19060;DHT22;9663;48.996;8.334;2023-05-15T13:28:10;35.40;35.20
19060;DHT22;9663;48.996;8.334;2023-05-15T13:30:37;35.20;34.50
19060;DHT22;9663;48.996;8.334;2023-05-15T13:33:06;33.60;33.40
19060;DHT22;9663;48.996;8.334;2023-05-15T13:35:34;34.80;33.90
19060;DHT22;9663;48.996;8.334;2023-05-15T13:38:02;34.50;33.30
19060;DHT22;9663;48.996;8.334;2023-05-15T13:40:27;34.30;33.40
19060;DHT22;9663;48.996;8.334;2023-05-15T13:42:53;33.00;32.90
19060;DHT22;9663;48.996;8.334;2023-05-15T13:45:19;32.30;33.00
19060;DHT22;9663;48.996;8.334;2023-05-15T13:47:45;31.00;32.10
19060;DHT22;9663;48.996;8.334;2023-05-15T13:50:12;30.40;33.40
19060;DHT22;9663;48.996;8.334;2023-05-15T13:52:39;29.60;33.60
19060;DHT22;9663;48.996;8.334;2023-05-15T13:55:07;29.90;34.50
19060;DHT22;9663;48.996;8.334;2023-05-15T13:57:35;28.20;34.20
19060;DHT22;9663;48.996;8.334;2023-05-15T14:00:03;27.40;34.70
19060;DHT22;9663;48.996;8.334;2023-05-15T14:02:39;26.50;35.30
19060;DHT22;9663;48.996;8.334;2023-05-15T14:05:06;25.80;36.30
19060;DHT22;9663;48.996;8.334;2023-05-15T14:07:33;25.30;37.10
19060;DHT22;9663;48.996;8.334;2023-05-15T14:09:59;24.70;38.00
19060;DHT22;9663;48.996;8.334;2023-05-15T14:12:25;24.60;39.00
19060;DHT22;9663;48.996;8.334;2023-05-15T14:14:51;23.80;39.30
19060;DHT22;9663;48.996;8.334;2023-05-15T14:17:16;23.20;40.80
19060;DHT22;9663;48.996;8.334;2023-05-15T14:19:42;23.00;40.80
19060;DHT22;9663;48.996;8.334;2023-05-15T14:22:09;21.50;40.70
19060;DHT22;9663;48.996;8.334;2023-05-15T14:24:35;22.30;42.30
19060;DHT22;9663;48.996;8.334;2023-05-15T14:27:01;22.20;45.00
19060;DHT22;9663;48.996;8.334;2023-05-15T14:29:26;22.00;44.30
19060;DHT22;9663;48.996;8.334;2023-05-15T14:31:52;22.50;44.60
19060;DHT22;9663;48.996;8.334;2023-05-15T14:34:19;21.20;43.80
19060;DHT22;9663;48.996;8.334;2023-05-15T14:36:47;22.00;44.40
19060;DHT22;9663;48.996;8.334;2023-05-15T14:39:16;22.00;44.70
19060;DHT22;9663;48.996;8.334;2023-05-15T14:41:43;21.80;44.90
19060;DHT22;9663;48.996;8.334;2023-05-15T14:44:09;24.40;45.80
19060;DHT22;9663;48.996;8.334;2023-05-15T14:46:35;23.90;45.40
19060;DHT22;9663;48.996;8.334;2023-05-15T14:49:02;22.40;44.60
19060;DHT22;9663;48.996;8.334;2023-05-15T14:51:29;22.40;46.70
19060;DHT22;9663;48.996;8.334;2023-05-15T14:53:55;21.00;45.20
19060;DHT22;9663;48.996;8.334;2023-05-15T14:56:21;22.70;45.70
19060;DHT22;9663;48.996;8.334;2023-05-15T14:58:47;21.70;44.60
19060;DHT22;9663;48.996;8.334;2023-05-15T15:01:14;22.70;44.60
19060;DHT22;9663;48.996;8.334;2023-05-15T15:03:43;22.70;44.40
19060;DHT22;9663;48.996;8.334;2023-05-15T15:06:09;22.60;44.30
19060;DHT22;9663;48.996;8.334;2023-05-15T15:08:34;22.50;44.30
19060;DHT22;9663;48.996;8.334;2023-05-15T15:11:00;22.40;44.50
19060;DHT22;9663;48.996;8.334;2023-05-15T15:13:26;22.50;44.80
19060;DHT22;9663;48.996;8.334;2023-05-15T15:15:55;22.60;44.70
19060;DHT22;9663;48.996;8.334;2023-05-15T15:18:21;22.50;44.70
19060;DHT22;9663;48.996;8.334;2023-05-15T15:20:47;22.50;44.80
19060;DHT22;9663;48.996;8.334;2023-05-15T15:23:14;22.60;44.80
19060;DHT22;9663;48.996;8.334;2023-05-15T15:25:39;22.60;44.80
19060;DHT22;9663;48.996;8.334;2023-05-15T15:28:05;22.60;44.80
19060;DHT22;9663;48.996;8.334;2023-05-15T15:30:31;21.80;44.60
19060;DHT22;9663;48.996;8.334;2023-05-15T15:32:57;22.80;46.70
19060;DHT22;9663;48.996;8.334;2023-05-15T15:35:23;23.40;47.50
19060;DHT22;9663;48.996;8.334;2023-05-15T15:37:50;24.20;47.60
19060;DHT22;9663;48.996;8.334;2023-05-15T15:40:17;24.90;46.90
19060;DHT22;9663;48.996;8.334;2023-05-15T15:42:43;25.70;46.20
19060;DHT22;9663;48.996;8.334;2023-05-15T15:45:08;26.40;45.70
19060;DHT22;9663;48.996;8.334;2023-05-15T15:47:34;27.10;45.40
19060;DHT22;9663;48.996;8.334;2023-05-15T15:50:00;27.90;45.20
19060;DHT22;9663;48.996;8.334;2023-05-15T15:52:26;28.60;44.70
19060;DHT22;9663;48.996;8.334;2023-05-15T15:54:52;29.40;44.20
19060;DHT22;9663;48.996;8.334;2023-05-15T15:57:19;29.80;43.00
19060;DHT22;9663;48.996;8.334;2023-05-15T15:59:45;29.90;41.10
19060;DHT22;9663;48.996;8.334;2023-05-15T16:02:12;29.50;40.20
19060;DHT22;9663;48.996;8.334;2023-05-15T16:04:38;29.60;40.10
19060;DHT22;9663;48.996;8.334;2023-05-15T16:07:05;30.40;40.60
19060;DHT22;9663;48.996;8.334;2023-05-15T16:09:31;28.80;39.60
19060;DHT22;9663;48.996;8.334;2023-05-15T16:11:57;28.50;38.90
19060;DHT22;9663;48.996;8.334;2023-05-15T16:14:23;27.10;38.30